To NAV CANADA Home Page Login to a new session Search on AWWS site Feedback and Comments Disclaimer Vers la page française équivalente Tips FAQ What's new on the site To the Forecasts and Observations / NOTAM section To "File a Flight Plan" website Publications and other links Update of the User's profile FIC Telephone Numbers My Weather Data Folder Route Weather Data Regional Weather Data Local Weather Data To the Forecasts and Observations / NOTAM section
Request Generated 05/24/2015 at 12:51:31 UTC . Weather information available at that time is displayed.

METAR/TAF

BURWASH/YT    

METAR CYDB 241200Z AUTO 29003KT 9SM CLR 03/M01 A3000 RMK SLP178=
METAR CYDB 241100Z AUTO 14003KT 9SM CLR 09/01 A3000 RMK SLP172=
METAR CYDB 241000Z AUTO 10005KT 9SM CLR 10/02 A3000 RMK SLP170=

TAF CYDB 241138Z 2412/2424 VRB03KT P6SM SKC
BECMG 2417/2419 12015KT
RMK FCST BASED ON AUTO OBS. NXT FCST BY 241800Z=
Your time UTC time
Weather data provided by Environment Canada and NAV CANADA